createdAt,value
2022-11-03T00:01:16.435Z,101212.97
2022-11-03T00:03:44.365Z,101211.31
2022-11-03T00:06:12.295Z,101213.22
2022-11-03T00:08:41.294Z,101212.13
2022-11-03T00:11:10.912Z,101206.09
2022-11-03T00:13:39.918Z,101208.81
2022-11-03T00:16:09.566Z,101210.50
2022-11-03T00:18:37.471Z,101199.81
2022-11-03T00:21:06.563Z,101194.34
2022-11-03T00:23:35.243Z,101196.03
2022-11-03T00:26:07.855Z,101186.19
2022-11-03T00:28:35.820Z,101186.19
2022-11-03T00:31:07.994Z,101186.19
2022-11-03T00:33:37.280Z,101183.88
2022-11-03T00:36:05.867Z,101185.34
2022-11-03T00:38:33.757Z,101187.22
2022-11-03T00:41:02.917Z,101169.19
2022-11-03T00:43:31.452Z,101171.91
2022-11-03T00:45:59.600Z,101163.75
2022-11-03T00:48:34.387Z,101162.91
2022-11-03T00:51:08.638Z,101160.19
2022-11-03T00:53:37.192Z,101159.13
2022-11-03T00:56:05.368Z,101152.63
2022-11-03T00:58:33.568Z,101155.34
2022-11-03T01:01:06.165Z,101158.91
2022-11-03T01:03:34.507Z,101160.59
2022-11-03T01:06:19.465Z,101158.72
2022-11-03T01:08:48.707Z,101155.16
2022-11-03T01:11:34.920Z,101154.31
2022-11-03T01:14:02.769Z,101156.19
2022-11-03T01:16:30.648Z,101153.47
2022-11-03T01:18:58.706Z,101150.38
2022-11-03T01:21:26.833Z,101145.50
2022-11-03T01:23:56.119Z,101145.50
2022-11-03T01:26:23.997Z,101139.22
2022-11-03T01:28:51.851Z,101139.22
2022-11-03T01:31:21.016Z,101134.59
2022-11-03T01:33:50.180Z,101130.19
2022-11-03T01:36:18.207Z,101132.94
2022-11-03T01:38:46.108Z,101125.59
2022-11-03T01:41:18.112Z,101119.75
2022-11-03T01:43:46.042Z,101108.63
2022-11-03T01:46:18.091Z,101107.19
2022-11-03T01:48:48.140Z,101116.81
2022-11-03T01:51:17.158Z,101105.06
2022-11-03T01:53:45.878Z,101105.06
2022-11-03T01:56:15.149Z,101104.25
2022-11-03T01:58:44.763Z,101098.78
2022-11-03T02:01:13.292Z,101081.66
2022-11-03T02:03:42.595Z,101089.78
2022-11-03T02:06:10.455Z,101081.59
2022-11-03T02:08:41.238Z,101080.75
2022-11-03T02:11:23.195Z,101078.88
2022-11-03T02:13:52.480Z,101077.00
2022-11-03T02:18:55.650Z,101065.03
2022-11-03T02:21:26.648Z,101070.25
2022-11-03T02:23:56.219Z,101062.06
2022-11-03T02:26:25.779Z,101051.00
2022-11-03T02:31:25.112Z,101051.16
2022-11-03T02:33:55.497Z,100953.97
2022-11-03T02:36:24.414Z,101040.09
2022-11-03T02:38:56.107Z,101021.28
2022-11-03T02:41:25.506Z,101025.00
2022-11-03T02:43:53.673Z,101005.41
2022-11-03T02:46:21.937Z,101019.53
2022-11-03T02:48:50.047Z,101016.63
2022-11-03T02:51:17.914Z,101010.97
2022-11-03T02:53:49.243Z,101014.50
2022-11-03T02:56:19.265Z,100971.34
2022-11-03T02:58:51.790Z,100977.41
2022-11-03T03:01:21.295Z,100972.16
2022-11-03T03:03:50.191Z,100963.59
2022-11-03T03:06:20.364Z,100978.00
2022-11-03T03:08:50.311Z,100982.13
2022-11-03T03:11:37.403Z,100997.31
2022-11-03T03:14:10.681Z,100985.59
2022-11-03T03:16:51.346Z,100979.31
2022-11-03T03:19:30.659Z,100896.19
2022-11-03T03:21:59.348Z,100983.13
2022-11-03T03:24:32.263Z,100976.00
2022-11-03T03:27:00.229Z,100972.44
2022-11-03T03:29:31.985Z,100975.16
2022-11-03T03:32:01.201Z,100973.25
2022-11-03T03:34:35.159Z,100973.25
2022-11-03T03:37:04.072Z,100972.22
2022-11-03T03:39:32.946Z,100973.84
2022-11-03T03:42:00.830Z,100972.81
2022-11-03T03:44:30.450Z,100920.00
2022-11-03T03:47:07.046Z,100952.06
2022-11-03T03:49:34.907Z,100951.00
2022-11-03T03:52:03.791Z,100960.00
2022-11-03T03:54:31.957Z,100947.22
2022-11-03T03:57:02.003Z,100942.00
2022-11-03T03:59:31.268Z,100932.22
2022-11-03T04:01:59.530Z,100938.44
2022-11-03T04:04:27.808Z,100932.13
2022-11-03T04:07:09.494Z,100890.88
2022-11-03T04:09:37.403Z,100897.94
2022-11-03T04:12:23.868Z,100927.78
2022-11-03T04:15:10.519Z,100867.94
2022-11-03T04:17:56.058Z,100916.88
2022-11-03T04:20:41.397Z,100916.03
2022-11-03T04:23:09.266Z,100905.97
2022-11-03T04:25:37.413Z,100900.38
2022-11-03T04:28:09.627Z,100907.03
2022-11-03T04:30:38.873Z,100904.31
2022-11-03T04:33:06.794Z,100910.59
2022-11-03T04:35:34.999Z,100900.53
2022-11-03T04:38:04.916Z,100900.53
2022-11-03T04:40:33.482Z,100886.75
2022-11-03T04:43:01.431Z,100856.34
2022-11-03T04:45:30.679Z,100887.72
2022-11-03T04:48:00.445Z,100892.34
2022-11-03T04:50:28.344Z,100886.91
2022-11-03T04:52:56.866Z,100888.53
2022-11-03T04:55:25.233Z,100892.09
2022-11-03T04:57:58.481Z,100888.53
2022-11-03T05:00:26.372Z,100884.75
2022-11-03T05:02:56.188Z,100863.66
2022-11-03T05:05:26.780Z,100871.97
2022-11-03T05:07:55.584Z,100871.97
2022-11-03T05:10:25.535Z,100861.91
2022-11-03T05:12:53.410Z,100862.75
2022-11-03T05:15:31.954Z,100855.63
2022-11-03T05:18:01.068Z,100847.22
2022-11-03T05:20:36.059Z,100837.38
2022-11-03T05:23:04.913Z,100836.53
2022-11-03T05:25:38.271Z,100842.00
2022-11-03T05:28:21.192Z,100831.09
2022-11-03T05:30:49.351Z,100830.03
2022-11-03T05:33:23.216Z,100817.47
2022-11-03T05:35:52.523Z,100812.56
2022-11-03T05:38:21.115Z,100797.34
2022-11-03T05:40:51.487Z,100823.75
2022-11-03T05:43:19.358Z,100825.63
2022-11-03T05:45:47.237Z,100824.59
2022-11-03T05:48:19.440Z,100772.59
2022-11-03T05:50:47.344Z,100818.31
2022-11-03T05:53:26.913Z,100815.56
2022-11-03T05:55:55.033Z,100815.56
2022-11-03T05:58:25.332Z,100810.13
2022-11-03T06:00:53.202Z,100804.69
2022-11-03T06:03:24.210Z,100771.56
2022-11-03T06:05:52.282Z,100791.28
2022-11-03T06:10:56.556Z,100774.88
2022-11-03T06:13:28.224Z,100783.94
2022-11-03T06:15:58.267Z,100778.25
2022-11-03T06:18:27.359Z,100781.22
2022-11-03T06:20:56.904Z,100775.75
2022-11-03T06:23:26.183Z,100741.81
2022-11-03T06:25:54.421Z,100759.25
2022-11-03T06:28:24.020Z,100768.19
2022-11-03T06:30:52.295Z,100756.31
2022-11-03T06:33:21.562Z,100759.19
2022-11-03T06:35:49.469Z,100741.03
2022-11-03T06:38:20.162Z,100753.72
2022-11-03T06:40:50.045Z,100733.63
2022-11-03T06:43:22.246Z,100758.13
2022-11-03T06:45:52.013Z,100727.03
2022-11-03T06:48:27.435Z,100740.94
2022-11-03T06:50:55.654Z,100699.75
2022-11-03T06:53:25.966Z,100721.72
2022-11-03T06:55:55.369Z,100702.59
2022-11-03T06:58:28.591Z,100728.38
2022-11-03T07:01:02.831Z,100666.13
2022-11-03T07:03:33.318Z,100689.69
2022-11-03T07:06:03.088Z,100723.97
2022-11-03T07:08:32.227Z,100723.97
2022-11-03T07:11:08.161Z,100683.84
2022-11-03T07:13:36.056Z,100702.53
2022-11-03T07:16:03.987Z,100717.69
2022-11-03T07:18:34.560Z,100693.50
2022-11-03T07:21:04.461Z,100703.22
2022-11-03T07:23:32.378Z,100684.38
2022-11-03T07:26:01.557Z,100715.81
2022-11-03T07:28:33.740Z,100674.44
2022-11-03T07:31:02.633Z,100676.50
2022-11-03T07:33:31.351Z,100670.22
2022-11-03T07:36:16.839Z,100711.41
2022-11-03T07:38:46.222Z,100704.91
2022-11-03T07:41:15.425Z,100667.25
2022-11-03T07:43:52.532Z,100699.22
2022-11-03T07:46:21.386Z,100697.56
2022-11-03T07:48:49.958Z,100671.72
2022-11-03T07:51:20.118Z,100690.84
2022-11-03T07:53:48.507Z,100686.44
2022-11-03T07:56:19.380Z,100661.56
2022-11-03T07:58:49.712Z,100670.91
2022-11-03T08:01:26.375Z,100667.38
2022-11-03T08:03:54.476Z,100666.31
2022-11-03T08:06:22.345Z,100675.53
2022-11-03T08:08:50.201Z,100643.16
2022-11-03T08:11:18.083Z,100658.13
2022-11-03T08:13:45.946Z,100652.78
2022-11-03T08:16:15.178Z,100661.09
2022-11-03T08:18:43.057Z,100654.56
2022-11-03T08:21:11.042Z,100649.13
2022-11-03T08:23:43.171Z,100578.16
2022-11-03T08:26:14.030Z,100652.69
2022-11-03T08:28:42.194Z,100636.31
2022-11-03T08:31:12.960Z,100631.09
2022-11-03T08:33:42.687Z,100645.56
2022-11-03T08:36:10.997Z,100639.06
2022-11-03T08:38:39.331Z,100610.94
2022-11-03T08:41:07.326Z,100638.22
2022-11-03T08:43:35.219Z,100628.16
2022-11-03T08:46:09.754Z,100636.56
2022-11-03T08:48:42.279Z,100621.03
2022-11-03T08:51:13.261Z,100619.16
2022-11-03T08:53:42.611Z,100609.06
2022-11-03T08:56:12.889Z,100610.97
2022-11-03T08:58:42.652Z,100585.25
2022-11-03T09:01:10.595Z,100597.34
2022-11-03T09:03:39.162Z,100597.34
2022-11-03T09:06:08.733Z,100585.38
2022-11-03T09:11:24.823Z,100588.13
2022-11-03T09:13:52.913Z,100584.28
2022-11-03T09:16:20.788Z,100578.03
2022-11-03T09:18:48.696Z,100581.56
2022-11-03T09:21:18.405Z,100564.41
2022-11-03T09:23:46.309Z,100555.41
2022-11-03T09:26:14.257Z,100530.38
2022-11-03T09:28:42.167Z,100530.88
2022-11-03T09:31:10.033Z,100524.59
2022-11-03T09:33:38.209Z,100522.72
2022-11-03T09:36:06.479Z,100514.53
2022-11-03T09:38:35.755Z,100515.38
2022-11-03T09:41:09.628Z,100512.66
2022-11-03T09:43:47.030Z,100502.53
2022-11-03T09:46:15.185Z,100497.34
2022-11-03T09:48:43.084Z,100488.91
2022-11-03T09:51:11.006Z,100483.47
2022-11-03T09:53:40.346Z,100469.03
2022-11-03T09:56:10.062Z,100469.84
2022-11-03T09:58:38.187Z,100449.47
2022-11-03T10:01:06.546Z,100437.41
2022-11-03T10:03:34.513Z,100444.50
2022-11-03T10:06:02.512Z,100432.78
2022-11-03T10:08:31.901Z,100423.50
2022-11-03T10:11:01.160Z,100415.34
2022-11-03T10:13:30.744Z,100415.34
2022-11-03T10:15:58.706Z,100411.81
2022-11-03T10:18:27.088Z,100411.81
2022-11-03T10:20:54.936Z,100415.34
2022-11-03T10:23:22.916Z,100407.31
2022-11-03T10:25:50.887Z,100409.88
2022-11-03T10:28:21.549Z,100419.72
2022-11-03T10:31:12.987Z,100421.38
2022-11-03T10:33:42.118Z,100413.22
2022-11-03T10:36:23.907Z,100400.66
2022-11-03T10:38:51.856Z,100369.50
2022-11-03T10:41:20.534Z,100362.28
2022-11-03T10:44:02.291Z,100318.16
2022-11-03T10:46:50.075Z,100367.72
2022-11-03T10:49:19.541Z,100342.75
2022-11-03T10:51:49.185Z,100354.09
2022-11-03T10:54:18.264Z,100339.66
2022-11-03T10:56:46.404Z,100330.63
2022-11-03T10:59:17.590Z,100328.75
2022-11-03T11:01:45.555Z,100318.91
2022-11-03T11:04:13.902Z,100275.25
2022-11-03T11:06:41.794Z,100292.50
2022-11-03T11:09:10.961Z,100294.38
2022-11-03T11:11:38.894Z,100286.22
2022-11-03T11:14:24.178Z,100302.56
2022-11-03T11:16:52.931Z,100304.34
2022-11-03T11:19:22.415Z,100311.56
2022-11-03T11:22:14.529Z,100311.56
2022-11-03T11:25:01.380Z,100301.41
2022-11-03T11:27:58.614Z,100304.44
2022-11-03T11:31:03.135Z,100306.34
2022-11-03T11:33:34.236Z,100311.78
2022-11-03T11:36:28.915Z,100318.34
2022-11-03T11:39:00.203Z,100311.78
2022-11-03T11:42:05.349Z,100302.00
2022-11-03T11:44:59.196Z,100313.72
2022-11-03T11:47:29.068Z,100279.50
2022-11-03T11:50:17.296Z,100281.81
2022-11-03T11:52:46.414Z,100247.41
2022-11-03T11:55:18.582Z,100236.00
2022-11-03T11:57:46.599Z,100237.16
2022-11-03T12:00:22.426Z,100223.53
2022-11-03T12:02:50.301Z,100197.53
2022-11-03T12:05:24.227Z,100205.88
2022-11-03T12:07:52.094Z,100194.16
2022-11-03T12:10:22.722Z,100191.44
2022-11-03T12:12:50.813Z,100146.63
2022-11-03T12:15:50.703Z,100176.97
2022-11-03T12:18:39.895Z,100159.72
2022-11-03T12:21:11.252Z,100166.06
2022-11-03T12:23:41.376Z,100169.63
2022-11-03T12:26:16.370Z,100155.19
2022-11-03T12:28:44.378Z,100145.94
2022-11-03T12:31:12.527Z,100135.28
2022-11-03T12:33:40.483Z,100122.53
2022-11-03T12:36:10.576Z,100136.09
2022-11-03T12:38:38.424Z,100092.50
2022-11-03T12:41:20.197Z,100132.03
2022-11-03T12:43:48.711Z,100114.06
2022-11-03T12:46:17.421Z,100111.34
2022-11-03T12:48:45.637Z,100106.97
2022-11-03T12:51:15.377Z,100100.91
2022-11-03T12:53:43.309Z,100093.34
2022-11-03T12:56:12.440Z,100096.88
2022-11-03T12:58:40.643Z,100079.72
2022-11-03T13:01:08.704Z,100057.00
2022-11-03T13:03:36.902Z,100056.00
2022-11-03T13:06:09.911Z,100044.28
2022-11-03T13:08:39.270Z,100039.66
2022-11-03T13:11:28.011Z,100035.88
2022-11-03T13:13:55.979Z,100033.16
2022-11-03T13:16:23.837Z,100032.03
2022-11-03T13:18:51.719Z,100025.78
2022-11-03T13:21:19.602Z,100010.25
2022-11-03T13:23:48.883Z,100011.06
2022-11-03T13:26:16.762Z,99996.63
2022-11-03T13:28:45.124Z,99993.91
2022-11-03T13:31:13.029Z,99979.44
2022-11-03T13:33:40.932Z,99963.09
2022-11-03T13:36:09.622Z,99966.66
2022-11-03T13:38:37.625Z,99953.72
2022-11-03T13:41:09.062Z,99957.66
2022-11-03T13:43:37.405Z,99954.13
2022-11-03T13:46:05.528Z,99940.50
2022-11-03T13:51:21.657Z,99908.03
2022-11-03T13:59:28.055Z,99918.69
2022-11-03T14:04:44.945Z,99923.31
2022-11-03T14:07:13.088Z,99906.31
2022-11-03T14:09:40.948Z,99903.44
2022-11-03T14:12:27.820Z,99903.44
2022-11-03T14:14:55.685Z,99899.88
2022-11-03T14:17:24.620Z,99888.97
2022-11-03T14:19:55.593Z,99889.22
2022-11-03T14:22:27.186Z,99896.31
2022-11-03T14:24:55.112Z,99893.59
2022-11-03T14:27:24.462Z,99879.97
2022-11-03T14:29:52.640Z,99874.28
2022-11-03T14:32:20.640Z,99878.91
2022-11-03T14:34:48.857Z,99882.69
2022-11-03T14:37:16.901Z,99886.00
2022-11-03T14:39:45.163Z,99880.56
2022-11-03T14:42:15.566Z,99893.34
2022-11-03T14:44:45.974Z,99900.44
2022-11-03T14:47:14.929Z,99893.34
2022-11-03T14:49:42.874Z,99883.28
2022-11-03T14:52:10.823Z,99870.72
2022-11-03T14:54:38.740Z,99884.06
2022-11-03T14:57:06.632Z,99879.72
2022-11-03T14:59:34.986Z,99839.66
2022-11-03T15:02:04.532Z,99873.44
2022-11-03T15:04:32.506Z,99835.06
2022-11-03T15:07:00.459Z,99869.06
2022-11-03T15:09:28.634Z,99867.19
2022-11-03T15:11:56.505Z,99871.78
2022-11-03T15:14:24.450Z,99865.53
2022-11-03T15:16:52.315Z,99857.34
2022-11-03T15:19:21.894Z,99856.28
2022-11-03T15:21:49.811Z,99856.53
2022-11-03T15:27:05.694Z,99841.81
2022-11-03T15:29:33.823Z,99831.16
2022-11-03T15:32:01.751Z,99804.38
2022-11-03T15:34:31.062Z,99819.72
2022-11-03T15:36:59.192Z,99814.81
2022-11-03T15:39:29.638Z,99793.84
2022-11-03T15:41:57.636Z,99780.22
2022-11-03T15:44:25.616Z,99782.13
2022-11-03T15:46:53.529Z,99788.41
2022-11-03T15:49:21.715Z,99789.22
2022-11-03T15:51:51.534Z,99781.88
2022-11-03T15:54:19.350Z,99771.00
2022-11-03T15:56:47.290Z,99735.09
2022-11-03T15:59:15.454Z,99761.75
2022-11-03T16:01:43.569Z,99765.53
2022-11-03T16:04:11.592Z,99716.22
2022-11-03T16:07:06.192Z,99750.84
2022-11-03T16:09:29.663Z,99749.19
2022-11-03T16:11:57.511Z,99751.91
2022-11-03T16:14:25.390Z,99750.84
2022-11-03T16:16:53.366Z,99743.75
2022-11-03T16:19:21.522Z,99726.22
2022-11-03T16:21:49.443Z,99739.13
2022-11-03T16:24:17.324Z,99740.19
2022-11-03T16:26:46.593Z,99727.41
2022-11-03T16:29:14.764Z,99736.63
2022-11-03T16:31:42.727Z,99732.03
2022-11-03T16:34:10.593Z,99692.16
2022-11-03T16:36:38.426Z,99728.47
2022-11-03T16:39:06.617Z,99718.41
2022-11-03T16:41:34.495Z,99708.56
2022-11-03T16:44:03.774Z,99699.03
2022-11-03T16:46:31.672Z,99701.75
2022-11-03T16:51:32.628Z,99701.22
2022-11-03T16:54:00.479Z,99699.56
2022-11-03T16:56:28.657Z,99697.63
2022-11-03T16:58:56.571Z,99692.22
2022-11-03T17:01:25.956Z,99691.41
2022-11-03T17:03:54.077Z,99687.59
2022-11-03T17:06:22.151Z,99682.41
2022-11-03T17:08:53.152Z,99693.03
2022-11-03T17:11:36.023Z,99675.88
2022-11-03T17:14:05.512Z,99665.81
2022-11-03T17:16:35.134Z,99642.25
2022-11-03T17:19:03.040Z,99641.75
2022-11-03T17:21:30.904Z,99653.00
2022-11-03T17:23:59.925Z,99653.00
2022-11-03T17:26:30.889Z,99646.72
2022-11-03T17:28:59.184Z,99583.47
2022-11-03T17:31:27.080Z,99644.84
2022-11-03T17:33:57.557Z,99642.09
2022-11-03T17:36:25.767Z,99630.38
2022-11-03T17:38:54.105Z,99622.22
2022-11-03T17:41:24.433Z,99620.31
2022-11-03T17:43:52.444Z,99631.22
2022-11-03T17:46:20.688Z,99626.00
2022-11-03T17:48:48.729Z,99632.03
2022-11-03T17:51:18.025Z,99597.25
2022-11-03T17:53:46.637Z,99622.22
2022-11-03T17:56:29.520Z,99627.66
2022-11-03T17:58:58.903Z,99624.94
2022-11-03T18:01:27.644Z,99618.66
2022-11-03T18:03:55.735Z,99627.66
2022-11-03T18:06:25.513Z,99574.84
2022-11-03T18:08:53.713Z,99622.22
2022-11-03T18:11:42.028Z,99627.66
2022-11-03T18:14:09.931Z,99624.13
2022-11-03T18:16:37.903Z,99617.84
2022-11-03T18:19:05.770Z,99613.41
2022-11-03T18:21:35.042Z,99617.84
2022-11-03T18:24:03.082Z,99615.13
2022-11-03T18:26:30.982Z,99612.38
2022-11-03T18:28:59.193Z,99606.94
2022-11-03T18:31:34.413Z,99615.06
2022-11-03T18:34:02.789Z,99591.09
2022-11-03T18:36:31.764Z,99606.72
2022-11-03T18:39:01.317Z,99600.78
2022-11-03T18:41:39.486Z,99607.84
2022-11-03T18:44:16.122Z,99583.00
2022-11-03T18:46:44.173Z,99599.69
2022-11-03T18:49:12.123Z,99601.56
2022-11-03T18:51:40.207Z,99586.50
2022-11-03T18:54:12.313Z,99597.22
2022-11-03T18:56:40.289Z,99594.75
2022-11-03T18:59:10.876Z,99584.94
2022-11-03T19:01:39.028Z,99596.66
2022-11-03T19:04:11.053Z,99567.94
2022-11-03T19:06:38.912Z,99574.88
2022-11-03T19:09:15.852Z,99587.94
2022-11-03T19:11:43.889Z,99579.28
2022-11-03T19:14:14.078Z,99555.78
2022-11-03T19:16:50.223Z,99571.16
2022-11-03T19:19:29.990Z,99571.16
2022-11-03T19:21:58.169Z,99572.22
2022-11-03T19:24:27.445Z,99560.75
2022-11-03T19:26:57.254Z,99560.47
2022-11-03T19:29:26.185Z,99547.88
2022-11-03T19:31:54.013Z,99556.91
2022-11-03T19:34:23.710Z,99559.09
2022-11-03T19:36:51.671Z,99554.47
2022-11-03T19:39:23.555Z,99553.88
2022-11-03T19:42:10.471Z,99559.34
2022-11-03T19:44:38.940Z,99555.22
2022-11-03T19:47:06.853Z,99557.13
2022-11-03T19:49:35.176Z,99548.94
2022-11-03T19:52:03.079Z,99551.66
2022-11-03T19:54:30.948Z,99541.59
2022-11-03T19:57:00.232Z,99535.31
2022-11-03T19:59:29.630Z,99543.50
2022-11-03T20:01:57.663Z,99546.22
2022-11-03T20:04:26.173Z,99541.59
2022-11-03T20:06:54.131Z,99533.41
2022-11-03T20:09:23.353Z,99530.69
2022-11-03T20:11:51.687Z,99533.41
2022-11-03T20:14:23.948Z,99524.41
2022-11-03T20:16:51.809Z,99515.66
2022-11-03T20:19:20.496Z,99518.19
2022-11-03T20:21:48.367Z,99524.41
2022-11-03T20:24:16.549Z,99521.97
2022-11-03T20:26:44.601Z,99524.72
2022-11-03T20:29:13.602Z,99532.88
2022-11-03T20:31:43.290Z,99523.06
2022-11-03T20:34:11.868Z,99522.22
2022-11-03T20:36:39.779Z,99517.59
2022-11-03T20:39:07.923Z,99537.25
2022-11-03T20:41:35.872Z,99535.59
2022-11-03T20:44:03.784Z,99533.69
2022-11-03T20:46:32.731Z,99528.50
2022-11-03T20:49:02.329Z,99532.06
2022-11-03T20:51:32.933Z,99539.41
2022-11-03T20:54:00.784Z,99544.03
2022-11-03T20:56:29.244Z,99530.41
2022-11-03T20:58:58.142Z,99533.13
2022-11-03T21:01:26.876Z,99526.03
2022-11-03T21:03:59.756Z,99538.00
2022-11-03T21:06:30.255Z,99537.75
2022-11-03T21:08:58.563Z,99541.84
2022-11-03T21:11:28.375Z,99547.81
2022-11-03T21:13:57.066Z,99540.41
2022-11-03T21:16:54.286Z,99555.75
2022-11-03T21:19:40.365Z,99553.03
2022-11-03T21:25:02.746Z,99548.66
2022-11-03T21:27:30.644Z,99509.53
2022-11-03T21:29:59.918Z,99553.03
2022-11-03T21:32:28.253Z,99551.13
2022-11-03T21:34:56.100Z,99551.38
2022-11-03T21:37:25.395Z,99562.84
2022-11-03T21:39:53.546Z,99566.91
2022-11-03T21:42:38.853Z,99540.53
2022-11-03T21:45:09.193Z,99563.09
2022-11-03T21:47:37.097Z,99574.00
2022-11-03T21:50:04.365Z,99571.28
2022-11-03T21:52:33.883Z,99563.94
2022-11-03T21:55:02.328Z,99566.66
2022-11-03T21:57:30.276Z,99562.28
2022-11-03T21:59:59.403Z,99560.38
2022-11-03T22:02:29.885Z,99577.78
2022-11-03T22:04:58.078Z,99576.97
2022-11-03T22:07:25.976Z,99561.44
2022-11-03T22:09:55.556Z,99467.53
2022-11-03T22:12:24.162Z,99579.69
2022-11-03T22:15:09.438Z,99581.59
2022-11-03T22:17:37.628Z,99585.16
2022-11-03T22:20:23.580Z,99585.16
2022-11-03T22:23:20.376Z,99581.59
2022-11-03T22:26:07.643Z,99588.16
2022-11-03T22:28:35.518Z,99594.69
2022-11-03T22:31:22.301Z,99605.31
2022-11-03T22:34:08.599Z,99606.41
2022-11-03T22:36:36.497Z,99621.66
2022-11-03T22:39:22.219Z,99632.81
2022-11-03T22:42:08.982Z,99638.81
2022-11-03T22:44:54.368Z,99660.06
2022-11-03T22:47:22.310Z,99662.53
2022-11-03T22:49:50.510Z,99663.59
2022-11-03T22:52:18.382Z,99669.88
2022-11-03T22:54:46.280Z,99668.22
2022-11-03T22:57:15.535Z,99636.97
2022-11-03T22:59:43.672Z,99676.41
2022-11-03T23:02:11.619Z,99668.22
2022-11-03T23:04:39.538Z,99662.78
2022-11-03T23:07:07.448Z,99657.09
2022-11-03T23:09:35.621Z,99667.16
2022-11-03T23:12:03.487Z,99665.50
2022-11-03T23:14:46.575Z,99665.50
2022-11-03T23:17:14.479Z,99662.78
2022-11-03T23:20:00.194Z,99688.13
2022-11-03T23:22:28.051Z,99697.38
2022-11-03T23:25:01.076Z,99701.16
2022-11-03T23:27:29.008Z,99714.78
2022-11-03T23:29:58.556Z,99719.16
2022-11-03T23:32:26.487Z,99714.97
2022-11-03T23:34:54.355Z,99741.78
2022-11-03T23:37:22.204Z,99740.13
2022-11-03T23:39:50.403Z,99741.22
2022-11-03T23:42:18.309Z,99749.13
2022-11-03T23:45:03.471Z,99749.38
2022-11-03T23:47:50.501Z,99760.28
2022-11-03T23:50:18.388Z,99758.38
2022-11-03T23:52:46.228Z,99760.53
2022-11-03T23:55:14.119Z,99760.53
2022-11-03T23:57:59.435Z,99767.91
